TimeCDT,TemperatureF,Dew PointF,Humidity,Sea Level PressureIn,VisibilityMPH,Wind Direction,Wind SpeedMPH,Gust SpeedMPH,PrecipitationIn,Events,Conditions,WindDirDegrees,DateUTC
12:53 AM,69.1,51.1,53,30.09,10.0,South,10.4,-,N/A,,Clear,170,2013-05-15 05:53:00
1:53 AM,68.0,54.0,61,30.09,10.0,South,10.4,-,N/A,,Clear,190,2013-05-15 06:53:00
2:53 AM,66.9,57.9,73,30.08,10.0,South,12.7,-,N/A,,Clear,180,2013-05-15 07:53:00
3:53 AM,66.0,60.1,81,30.07,10.0,South,10.4,-,N/A,,Scattered Clouds,170,2013-05-15 08:53:00
4:53 AM,66.0,61.0,84,30.06,10.0,South,11.5,-,N/A,,Clear,170,2013-05-15 09:53:00
5:53 AM,66.9,62.1,84,30.06,10.0,South,11.5,-,N/A,,Clear,180,2013-05-15 10:53:00
6:53 AM,66.9,62.1,84,30.06,10.0,South,9.2,-,N/A,,Clear,180,2013-05-15 11:53:00
7:53 AM,69.1,63.0,81,30.07,10.0,South,13.8,-,N/A,,Scattered Clouds,180,2013-05-15 12:53:00
8:53 AM,71.1,63.0,75,30.07,10.0,South,13.8,-,N/A,,Scattered Clouds,180,2013-05-15 13:53:00
9:12 AM,71.6,62.6,73,30.08,10.0,South,15.0,20.7,N/A,,Mostly Cloudy,190,2013-05-15 14:12:00
9:22 AM,71.6,62.6,73,30.08,10.0,South,10.4,-,N/A,,Mostly Cloudy,180,2013-05-15 14:22:00
9:50 AM,69.8,64.4,83,30.08,8.0,South,10.4,-,0.00,Rain,Rain,170,2013-05-15 14:50:00
9:53 AM,70.0,64.0,81,30.07,9.0,South,9.2,-,0.00,Rain,Light Rain,170,2013-05-15 14:53:00
10:13 AM,69.8,64.4,83,30.07,10.0,South,9.2,-,0.02,Rain,Light Rain,180,2013-05-15 15:13:00
10:21 AM,69.8,66.2,88,30.07,10.0,SSE,10.4,-,0.02,Rain,Light Rain,160,2013-05-15 15:21:00
10:32 AM,69.8,66.2,88,30.06,10.0,SSE,10.4,-,0.02,,Mostly Cloudy,160,2013-05-15 15:32:00
10:44 AM,69.8,66.2,88,30.07,10.0,South,12.7,19.6,0.02,,Mostly Cloudy,170,2013-05-15 15:44:00
10:53 AM,70.0,66.0,87,30.06,10.0,South,10.4,-,0.02,,Mostly Cloudy,180,2013-05-15 15:53:00
11:48 AM,73.4,64.4,73,30.07,10.0,South,19.6,-,N/A,,Mostly Cloudy,180,2013-05-15 16:48:00
11:53 AM,73.0,64.9,76,30.06,10.0,South,15.0,24.2,N/A,,Overcast,180,2013-05-15 16:53:00
12:53 PM,73.0,64.0,73,30.04,10.0,South,16.1,25.3,N/A,,Mostly Cloudy,170,2013-05-15 17:53:00
1:21 PM,71.6,64.4,78,30.05,10.0,South,13.8,23.0,N/A,,Overcast,180,2013-05-15 18:21:00
1:43 PM,71.6,64.4,78,30.05,10.0,South,13.8,23.0,N/A,,Overcast,180,2013-05-15 18:43:00
1:53 PM,72.0,64.0,76,30.03,10.0,South,12.7,20.7,N/A,Thunderstorm,Overcast,170,2013-05-15 18:53:00
2:34 PM,69.8,64.4,83,30.01,9.0,SSE,13.8,21.9,0.03,Rain,Rain,160,2013-05-15 19:34:00
2:50 PM,69.8,66.2,88,30.01,7.0,South,11.5,-,0.05,Rain,Light Rain,170,2013-05-15 19:50:00
2:53 PM,69.1,66.0,90,29.99,7.0,SSE,11.5,-,0.05,Rain,Light Rain,160,2013-05-15 19:53:00
3:00 PM,68.0,66.2,94,30.00,8.0,SSE,13.8,-,0.01,Rain-Thunderstorm,Light Rain,160,2013-05-15 20:00:00
3:23 PM,68.0,66.2,94,29.99,6.0,SSE,12.7,-,0.03,Rain,Rain,160,2013-05-15 20:23:00
3:34 PM,68.0,66.2,94,29.98,6.0,SSE,11.5,-,0.04,Rain-Thunderstorm,Rain,150,2013-05-15 20:34:00
3:53 PM,68.0,66.0,93,29.96,2.5,SSE,16.1,19.6,0.17,Rain-Thunderstorm,Heavy Thunderstorms and Rain,150,2013-05-15 20:53:00
4:10 PM,68.0,66.2,94,29.98,4.0,SSE,15.0,20.7,0.10,Rain-Thunderstorm,Thunderstorms and Rain,160,2013-05-15 21:10:00
4:48 PM,68.0,64.4,88,29.96,6.0,SE,12.7,-,0.22,Rain-Thunderstorm,Light Thunderstorms and Rain,140,2013-05-15 21:48:00
4:53 PM,68.0,64.9,90,29.95,5.0,SE,15.0,-,0.23,Rain-Thunderstorm,Rain,130,2013-05-15 21:53:00
5:02 PM,68.0,64.4,88,29.96,7.0,SSE,11.5,17.3,0.00,Rain-Thunderstorm,Light Thunderstorms and Rain,150,2013-05-15 22:02:00
5:12 PM,68.0,64.4,88,29.95,10.0,SE,12.7,19.6,0.00,Rain-Thunderstorm,Light Thunderstorms and Rain,140,2013-05-15 22:12:00
5:20 PM,68.0,64.4,88,29.95,10.0,SE,12.7,-,0.00,,Overcast,130,2013-05-15 22:20:00
5:53 PM,66.9,64.0,90,29.93,10.0,SE,16.1,19.6,0.00,,Overcast,140,2013-05-15 22:53:00
6:34 PM,66.2,62.6,88,29.94,10.0,SE,13.8,-,N/A,,Overcast,140,2013-05-15 23:34:00
6:53 PM,66.9,63.0,87,29.91,10.0,SE,11.5,-,N/A,,Overcast,140,2013-05-15 23:53:00
7:38 PM,66.2,62.6,88,29.91,10.0,SE,12.7,-,N/A,,Mostly Cloudy,140,2013-05-16 00:38:00
7:53 PM,66.0,63.0,90,29.90,10.0,SSE,12.7,-,N/A,,Scattered Clouds,150,2013-05-16 00:53:00
8:53 PM,66.9,64.0,90,29.88,10.0,SE,13.8,-,N/A,,Mostly Cloudy,130,2013-05-16 01:53:00
9:04 PM,66.2,62.6,88,29.89,10.0,SE,13.8,-,N/A,,Mostly Cloudy,140,2013-05-16 02:04:00
9:53 PM,66.9,64.0,90,29.88,10.0,SE,15.0,-,N/A,,Overcast,140,2013-05-16 02:53:00
10:53 PM,66.9,63.0,87,29.89,10.0,SSE,11.5,18.4,N/A,,Mostly Cloudy,150,2013-05-16 03:53:00
11:53 PM,68.0,63.0,84,29.88,10.0,SSE,12.7,-,N/A,,Overcast,150,2013-05-16 04:53:00